Search for airport 
image banner adimage banner ad
image banner ad

DFFD - Ouagadougou

Located in Ouagadougou, Burkina Faso

ICAO - DFFD, IATA - OUA

Data provided by Airmate  

General information

Coordinates: N12°21'13" W1°30'43"
Elevation is 1038 feet MSL.
 
Rated:
View ratings: [VIEW]


View others Airports in Kadiogo

Operational data

Open for public use
Current time UTC:
Current local time:
Weather
METAR: DFFD 122200Z 14002KT 9999 FEW024 26/23 Q1015 RETS NOSIG
TAF: TAF DFFD 121700Z 1218/1324 24010KT 9999 SCT020 TEMPO 1218/1302 4000 TS SHRA SCT020 SCT036CB TEMPO 1312/1320 4000 TSRA SCT020 SCT036CB
View NOTAMs / SUP AIP / TFR affecting this airport [VIEW]
Communications frequencies: [VIEW]

Runways:

RWY identifierQFULength (ft)Width (ft)SurfaceLDA (ft)
0433°9843148
22213°9843148

Airport contact information

Address: Ouagadougou Burkina Faso

Satellite view of DFFD